PWSweather.com
Personal Weather Stations
Station Observations
KNEOMA130
Stonybrook South, Omaha, NE 68138

Stonybrook SouthOmaha, NE 68138

Lat: 41.190485, Lon: -96.13102900000001

Elevation: 1142

Station Type: Davis VP2

http://chappelleweather.com

Latest ConditionsUpdated 2:21:06 AM CST Thursday, Dec 12, 2019
Currently Today's Max Today's Min Today's Average
Temperature 34.5°F1.4°C 34.5°F1.4°C 31.7°F-0.2°C 33.6°F0.9°C
Dew Point 27.7°F-2.4°C 27.8°F-2.3°C 25.0°F-3.9°C 26.9°F-2.8°C
Winds 1.0 mph SE1.6 kmh SE 10.0 mph -16.1 kmh - - 4.2 mph 6.8 kmh
Wind Gusts 7.0 mph11.3 kmh 13.0 mph20.9 kmh - -
Humidity 76% 77% 75% 76%
Pressure 30.02 in1016.6 mb 30.07 in1018.3 mb 30.02 in1016.6 mb -
Hour Temp Dew Point Humidity Winds Wind Gusts Pressure Precip Precip Rate Daily Precip Total
02:21 AM 34.5°F1.4°C 27.7°F-2.4°C 76% 1.0 mph SE1.6 kmh SE 7.0 mph11.3 kmh 30.02 in1016.6 mb 0.00 in0.0 mm 0.00 in0.0 mm 0.00 in0.0 mm
02:20 AM 34.4°F1.3°C 27.6°F-2.4°C 76% 6.0 mph S9.7 kmh S 7.0 mph11.3 kmh 30.02 in1016.6 mb 0.00 in0.0 mm 0.00 in0.0 mm 0.00 in0.0 mm
02:19 AM 34.5°F1.4°C 27.7°F-2.4°C 76% 2.0 mph SSE3.2 kmh SSE 7.0 mph11.3 kmh 30.02 in1016.6 mb 0.00 in0.0 mm 0.00 in0.0 mm 0.00 in0.0 mm
02:18 AM 34.5°F1.4°C 27.7°F-2.4°C 76% 3.0 mph SE4.8 kmh SE 7.0 mph11.3 kmh 30.02 in1016.6 mb 0.00 in0.0 mm 0.00 in0.0 mm 0.00 in0.0 mm
02:17 AM 34.4°F1.3°C 27.6°F-2.4°C 76% 1.0 mph SE1.6 kmh SE 7.0 mph11.3 kmh 30.02 in1016.6 mb 0.00 in0.0 mm 0.00 in0.0 mm 0.00 in0.0 mm
02:16 AM 34.4°F1.3°C 27.6°F-2.4°C 76% 4.0 mph SE6.4 kmh SE 7.0 mph11.3 kmh 30.02 in1016.6 mb 0.00 in0.0 mm 0.00 in0.0 mm 0.00 in0.0 mm
02:15 AM 34.4°F1.3°C 27.6°F-2.4°C 76% 4.0 mph SE6.4 kmh SE 7.0 mph11.3 kmh 30.02 in1016.6 mb 0.00 in0.0 mm 0.00 in0.0 mm 0.00 in0.0 mm
02:14 AM 34.4°F1.3°C 27.6°F-2.4°C 76% 2.0 mph ESE3.2 kmh ESE 6.0 mph9.7 kmh 30.02 in1016.6 mb 0.00 in0.0 mm 0.00 in0.0 mm 0.00 in0.0 mm
02:13 AM 34.3°F1.3°C 27.8°F-2.3°C 77% 4.0 mph SE6.4 kmh SE 5.0 mph8.0 kmh 30.02 in1016.6 mb 0.00 in0.0 mm 0.00 in0.0 mm 0.00 in0.0 mm
02:12 AM 34.3°F1.3°C 27.5°F-2.5°C 76% 3.0 mph SE4.8 kmh SE 4.0 mph6.4 kmh 30.02 in1016.6 mb 0.00 in0.0 mm 0.00 in0.0 mm 0.00 in0.0 mm
02:11 AM 34.3°F1.3°C 27.5°F-2.5°C 76% 3.0 mph SE4.8 kmh SE 5.0 mph8.0 kmh 30.02 in1016.6 mb 0.00 in0.0 mm 0.00 in0.0 mm 0.00 in0.0 mm
02:10 AM 34.3°F1.3°C 27.5°F-2.5°C 76% 2.0 mph SE3.2 kmh SE 5.0 mph8.0 kmh 30.02 in1016.6 mb 0.00 in0.0 mm 0.00 in0.0 mm 0.00 in0.0 mm
02:09 AM 34.3°F1.3°C 27.5°F-2.5°C 76% 1.0 mph SE1.6 kmh SE 5.0 mph8.0 kmh 30.02 in1016.6 mb 0.00 in0.0 mm 0.00 in0.0 mm 0.00 in0.0 mm
02:08 AM 34.3°F1.3°C 27.5°F-2.5°C 76% 1.0 mph SSE1.6 kmh SSE 5.0 mph8.0 kmh 30.02 in1016.6 mb 0.00 in0.0 mm 0.00 in0.0 mm 0.00 in0.0 mm
02:07 AM 34.3°F1.3°C 27.5°F-2.5°C 76% Calm Calm 5.0 mph8.0 kmh 30.02 in1016.6 mb 0.00 in0.0 mm 0.00 in0.0 mm 0.00 in0.0 mm
02:06 AM 34.3°F1.3°C 27.5°F-2.5°C 76% 1.0 mph SSE1.6 kmh SSE 8.0 mph12.9 kmh 30.02 in1016.6 mb 0.00 in0.0 mm 0.00 in0.0 mm 0.00 in0.0 mm
02:05 AM 34.3°F1.3°C 27.5°F-2.5°C 76% 1.0 mph SSE1.6 kmh SSE 8.0 mph12.9 kmh 30.02 in1016.6 mb 0.00 in0.0 mm 0.00 in0.0 mm 0.00 in0.0 mm
02:04 AM 34.3°F1.3°C 27.5°F-2.5°C 76% 2.0 mph SSE3.2 kmh SSE 8.0 mph12.9 kmh 30.02 in1016.6 mb 0.00 in0.0 mm 0.00 in0.0 mm 0.00 in0.0 mm
02:03 AM 34.3°F1.3°C 27.5°F-2.5°C 76% Calm Calm 8.0 mph12.9 kmh 30.02 in1016.6 mb 0.00 in0.0 mm 0.00 in0.0 mm 0.00 in0.0 mm
02:02 AM 34.3°F1.3°C 27.5°F-2.5°C 76% 2.0 mph SSE3.2 kmh SSE 8.0 mph12.9 kmh 30.02 in1016.6 mb 0.00 in0.0 mm 0.00 in0.0 mm 0.00 in0.0 mm
02:01 AM 34.3°F1.3°C 27.5°F-2.5°C 76% 3.0 mph S4.8 kmh S 8.0 mph12.9 kmh 30.02 in1016.6 mb 0.00 in0.0 mm 0.00 in0.0 mm 0.00 in0.0 mm
02:00 AM 34.3°F1.3°C 27.5°F-2.5°C 76% 2.0 mph E3.2 kmh E 8.0 mph12.9 kmh 30.02 in1016.6 mb 0.00 in0.0 mm 0.00 in0.0 mm 0.00 in0.0 mm
01:59 AM 34.3°F1.3°C 27.5°F-2.5°C 76% 3.0 mph SSE4.8 kmh SSE 9.0 mph14.5 kmh 30.02 in1016.6 mb 0.00 in0.0 mm 0.00 in0.0 mm 0.00 in0.0 mm
01:58 AM 34.4°F1.3°C 27.6°F-2.4°C 76% 4.0 mph S6.4 kmh S 9.0 mph14.5 kmh 30.02 in1016.6 mb 0.00 in0.0 mm 0.00 in0.0 mm 0.00 in0.0 mm
01:57 AM 34.3°F1.3°C 27.5°F-2.5°C 76% 2.0 mph SE3.2 kmh SE 9.0 mph14.5 kmh 30.02 in1016.6 mb 0.00 in0.0 mm 0.00 in0.0 mm 0.00 in0.0 mm
01:56 AM 34.4°F1.3°C 27.6°F-2.4°C 76% 3.0 mph SE4.8 kmh SE 9.0 mph14.5 kmh 30.02 in1016.6 mb 0.00 in0.0 mm 0.00 in0.0 mm 0.00 in0.0 mm
01:55 AM 34.4°F1.3°C 27.6°F-2.4°C 76% 1.0 mph SE1.6 kmh SE 9.0 mph14.5 kmh 30.02 in1016.6 mb 0.00 in0.0 mm 0.00 in0.0 mm 0.00 in0.0 mm
01:54 AM 34.4°F1.3°C 27.6°F-2.4°C 76% 4.0 mph SSE6.4 kmh SSE 9.0 mph14.5 kmh 30.02 in1016.6 mb 0.00 in0.0 mm 0.00 in0.0 mm 0.00 in0.0 mm
01:53 AM 34.4°F1.3°C 27.6°F-2.4°C 76% 4.0 mph SE6.4 kmh SE 9.0 mph14.5 kmh 30.02 in1016.6 mb 0.00 in0.0 mm 0.00 in0.0 mm 0.00 in0.0 mm
01:52 AM 34.4°F1.3°C 27.6°F-2.4°C 76% 2.0 mph SE3.2 kmh SE 9.0 mph14.5 kmh 30.02 in1016.6 mb 0.00 in0.0 mm 0.00 in0.0 mm 0.00 in0.0 mm
01:51 AM 34.4°F1.3°C 27.6°F-2.4°C 76% 2.0 mph S3.2 kmh S 9.0 mph14.5 kmh 30.02 in1016.6 mb 0.00 in0.0 mm 0.00 in0.0 mm 0.00 in0.0 mm
01:50 AM 34.3°F1.3°C 27.5°F-2.5°C 76% 3.0 mph SE4.8 kmh SE 9.0 mph14.5 kmh 30.02 in1016.6 mb 0.00 in0.0 mm 0.00 in0.0 mm 0.00 in0.0 mm
01:49 AM 34.3°F1.3°C 27.5°F-2.5°C 76% 9.0 mph SSE14.5 kmh SSE 9.0 mph14.5 kmh 30.02 in1016.6 mb 0.00 in0.0 mm 0.00 in0.0 mm 0.00 in0.0 mm
01:48 AM 34.3°F1.3°C 27.5°F-2.5°C 76% 3.0 mph S4.8 kmh S 9.0 mph14.5 kmh 30.02 in1016.6 mb 0.00 in0.0 mm 0.00 in0.0 mm 0.00 in0.0 mm
01:47 AM 34.3°F1.3°C 27.5°F-2.5°C 76% 3.0 mph SE4.8 kmh SE 9.0 mph14.5 kmh 30.02 in1016.6 mb 0.00 in0.0 mm 0.00 in0.0 mm 0.00 in0.0 mm
01:46 AM 34.3°F1.3°C 27.5°F-2.5°C 76% 4.0 mph SE6.4 kmh SE 11.0 mph17.7 kmh 30.02 in1016.6 mb 0.00 in0.0 mm 0.00 in0.0 mm 0.00 in0.0 mm
01:45 AM 34.3°F1.3°C 27.5°F-2.5°C 76% 3.0 mph S4.8 kmh S 11.0 mph17.7 kmh 30.02 in1016.6 mb 0.00 in0.0 mm 0.00 in0.0 mm 0.00 in0.0 mm
01:44 AM 34.3°F1.3°C 27.5°F-2.5°C 76% 3.0 mph SSE4.8 kmh SSE 11.0 mph17.7 kmh 30.02 in1016.6 mb 0.00 in0.0 mm 0.00 in0.0 mm 0.00 in0.0 mm
01:43 AM 34.3°F1.3°C 27.5°F-2.5°C 76% 2.0 mph SSE3.2 kmh SSE 11.0 mph17.7 kmh 30.02 in1016.6 mb 0.00 in0.0 mm 0.00 in0.0 mm 0.00 in0.0 mm
01:42 AM 34.3°F1.3°C 27.5°F-2.5°C 76% 5.0 mph SE8.0 kmh SE 11.0 mph17.7 kmh 30.02 in1016.6 mb 0.00 in0.0 mm 0.00 in0.0 mm 0.00 in0.0 mm
01:41 AM 34.3°F1.3°C 27.5°F-2.5°C 76% 7.0 mph SE11.3 kmh SE 11.0 mph17.7 kmh 30.03 in1016.9 mb 0.00 in0.0 mm 0.00 in0.0 mm 0.00 in0.0 mm
01:40 AM 34.3°F1.3°C 27.5°F-2.5°C 76% 5.0 mph SSE8.0 kmh SSE 11.0 mph17.7 kmh 30.03 in1016.9 mb 0.00 in0.0 mm 0.00 in0.0 mm 0.00 in0.0 mm
01:39 AM 34.3°F1.3°C 27.5°F-2.5°C 76% 5.0 mph SE8.0 kmh SE 11.0 mph17.7 kmh 30.03 in1016.9 mb 0.00 in0.0 mm 0.00 in0.0 mm 0.00 in0.0 mm
01:38 AM 34.3°F1.3°C 27.5°F-2.5°C 76% 4.0 mph S6.4 kmh S 11.0 mph17.7 kmh 30.03 in1016.9 mb 0.00 in0.0 mm 0.00 in0.0 mm 0.00 in0.0 mm
01:37 AM 34.3°F1.3°C 27.5°F-2.5°C 76% 6.0 mph SSE9.7 kmh SSE 11.0 mph17.7 kmh 30.03 in1016.9 mb 0.00 in0.0 mm 0.00 in0.0 mm 0.00 in0.0 mm
01:36 AM 34.3°F1.3°C 27.5°F-2.5°C 76% 8.0 mph SE12.9 kmh SE 10.0 mph16.1 kmh 30.03 in1016.9 mb 0.00 in0.0 mm 0.00 in0.0 mm 0.00 in0.0 mm
01:35 AM 34.3°F1.3°C 27.2°F-2.7°C 75% 8.0 mph SE12.9 kmh SE 10.0 mph16.1 kmh 30.03 in1016.9 mb 0.00 in0.0 mm 0.00 in0.0 mm 0.00 in0.0 mm
01:34 AM 34.3°F1.3°C 27.2°F-2.7°C 75% 4.0 mph S6.4 kmh S 10.0 mph16.1 kmh 30.03 in1016.9 mb 0.00 in0.0 mm 0.00 in0.0 mm 0.00 in0.0 mm
01:33 AM 34.3°F1.3°C 27.2°F-2.7°C 75% 8.0 mph SE12.9 kmh SE 10.0 mph16.1 kmh 30.03 in1016.9 mb 0.00 in0.0 mm 0.00 in0.0 mm 0.00 in0.0 mm
01:32 AM 34.3°F1.3°C 27.5°F-2.5°C 76% 4.0 mph SE6.4 kmh SE 10.0 mph16.1 kmh 30.03 in1016.9 mb 0.00 in0.0 mm 0.00 in0.0 mm 0.00 in0.0 mm
01:31 AM 34.3°F1.3°C 27.5°F-2.5°C 76% 3.0 mph S4.8 kmh S 10.0 mph16.1 kmh 30.03 in1016.9 mb 0.00 in0.0 mm 0.00 in0.0 mm 0.00 in0.0 mm
01:30 AM 34.3°F1.3°C 27.5°F-2.5°C 76% 4.0 mph SE6.4 kmh SE 10.0 mph16.1 kmh 30.03 in1016.9 mb 0.00 in0.0 mm 0.00 in0.0 mm 0.00 in0.0 mm
01:29 AM 34.3°F1.3°C 27.5°F-2.5°C 76% 7.0 mph SE11.3 kmh SE 10.0 mph16.1 kmh 30.03 in1016.9 mb 0.00 in0.0 mm 0.00 in0.0 mm 0.00 in0.0 mm
01:28 AM 34.3°F1.3°C 27.5°F-2.5°C 76% 5.0 mph SE8.0 kmh SE 10.0 mph16.1 kmh 30.03 in1016.9 mb 0.00 in0.0 mm 0.00 in0.0 mm 0.00 in0.0 mm
01:27 AM 34.2°F1.2°C 27.4°F-2.6°C 76% 4.0 mph ESE6.4 kmh ESE 10.0 mph16.1 kmh 30.03 in1016.9 mb 0.00 in0.0 mm 0.00 in0.0 mm 0.00 in0.0 mm
01:26 AM 34.2°F1.2°C 27.4°F-2.6°C 76% 3.0 mph S4.8 kmh S 10.0 mph16.1 kmh 30.03 in1016.9 mb 0.00 in0.0 mm 0.00 in0.0 mm 0.00 in0.0 mm
01:25 AM 34.2°F1.2°C 27.4°F-2.6°C 76% 5.0 mph SSE8.0 kmh SSE 10.0 mph16.1 kmh 30.03 in1016.9 mb 0.00 in0.0 mm 0.00 in0.0 mm 0.00 in0.0 mm
01:24 AM 34.2°F1.2°C 27.4°F-2.6°C 76% 3.0 mph SSE4.8 kmh SSE 10.0 mph16.1 kmh 30.03 in1016.9 mb 0.00 in0.0 mm 0.00 in0.0 mm 0.00 in0.0 mm
01:23 AM 34.2°F1.2°C 27.4°F-2.6°C 76% 4.0 mph SE6.4 kmh SE 10.0 mph16.1 kmh 30.03 in1016.9 mb 0.00 in0.0 mm 0.00 in0.0 mm 0.00 in0.0 mm
01:22 AM 34.1°F1.2°C 27.3°F-2.6°C 76% 7.0 mph SSE11.3 kmh SSE 10.0 mph16.1 kmh 30.03 in1016.9 mb 0.00 in0.0 mm 0.00 in0.0 mm 0.00 in0.0 mm
01:21 AM 34.1°F1.2°C 27.3°F-2.6°C 76% 5.0 mph SE8.0 kmh SE 10.0 mph16.1 kmh 30.03 in1016.9 mb 0.00 in0.0 mm 0.00 in0.0 mm 0.00 in0.0 mm
01:20 AM 34.1°F1.2°C 27.3°F-2.6°C 76% 8.0 mph SSE12.9 kmh SSE 10.0 mph16.1 kmh 30.03 in1016.9 mb 0.00 in0.0 mm 0.00 in0.0 mm 0.00 in0.0 mm
01:19 AM 34.1°F1.2°C 27.3°F-2.6°C 76% 8.0 mph E12.9 kmh E 10.0 mph16.1 kmh 30.04 in1017.3 mb 0.00 in0.0 mm 0.00 in0.0 mm 0.00 in0.0 mm
01:18 AM 34.1°F1.2°C 27.3°F-2.6°C 76% 4.0 mph SE6.4 kmh SE 10.0 mph16.1 kmh 30.04 in1017.3 mb 0.00 in0.0 mm 0.00 in0.0 mm 0.00 in0.0 mm
01:17 AM 34.0°F1.1°C 27.2°F-2.7°C 76% 2.0 mph S3.2 kmh S 10.0 mph16.1 kmh 30.04 in1017.3 mb 0.00 in0.0 mm 0.00 in0.0 mm 0.00 in0.0 mm
01:16 AM 34.0°F1.1°C 27.2°F-2.7°C 76% 6.0 mph S9.7 kmh S 10.0 mph16.1 kmh 30.04 in1017.3 mb 0.00 in0.0 mm 0.00 in0.0 mm 0.00 in0.0 mm
01:15 AM 34.0°F1.1°C 27.2°F-2.7°C 76% 5.0 mph SE8.0 kmh SE 13.0 mph20.9 kmh 30.04 in1017.3 mb 0.00 in0.0 mm 0.00 in0.0 mm 0.00 in0.0 mm
01:14 AM 34.0°F1.1°C 27.2°F-2.7°C 76% 3.0 mph SE4.8 kmh SE 13.0 mph20.9 kmh 30.04 in1017.3 mb 0.00 in0.0 mm 0.00 in0.0 mm 0.00 in0.0 mm
01:13 AM 34.0°F1.1°C 27.2°F-2.7°C 76% 4.0 mph SSE6.4 kmh SSE 13.0 mph20.9 kmh 30.04 in1017.3 mb 0.00 in0.0 mm 0.00 in0.0 mm 0.00 in0.0 mm
01:12 AM 34.0°F1.1°C 27.2°F-2.7°C 76% 4.0 mph S6.4 kmh S 13.0 mph20.9 kmh 30.04 in1017.3 mb 0.00 in0.0 mm 0.00 in0.0 mm 0.00 in0.0 mm
01:11 AM 33.9°F1.1°C 27.1°F-2.7°C 76% 5.0 mph SE8.0 kmh SE 13.0 mph20.9 kmh 30.04 in1017.3 mb 0.00 in0.0 mm 0.00 in0.0 mm 0.00 in0.0 mm
01:10 AM 33.9°F1.1°C 27.1°F-2.7°C 76% 9.0 mph SE14.5 kmh SE 13.0 mph20.9 kmh 30.04 in1017.3 mb 0.00 in0.0 mm 0.00 in0.0 mm 0.00 in0.0 mm
01:09 AM 33.9°F1.1°C 27.1°F-2.7°C 76% 4.0 mph SSE6.4 kmh SSE 13.0 mph20.9 kmh 30.04 in1017.3 mb 0.00 in0.0 mm 0.00 in0.0 mm 0.00 in0.0 mm
01:08 AM 33.9°F1.1°C 27.1°F-2.7°C 76% 5.0 mph S8.0 kmh S 13.0 mph20.9 kmh 30.04 in1017.3 mb 0.00 in0.0 mm 0.00 in0.0 mm 0.00 in0.0 mm
01:07 AM 33.8°F1.0°C 27.0°F-2.8°C 76% 10.0 mph SSE16.1 kmh SSE 13.0 mph20.9 kmh 30.04 in1017.3 mb 0.00 in0.0 mm 0.00 in0.0 mm 0.00 in0.0 mm
01:06 AM 33.8°F1.0°C 27.0°F-2.8°C 76% 5.0 mph SE8.0 kmh SE 13.0 mph20.9 kmh 30.04 in1017.3 mb 0.00 in0.0 mm 0.00 in0.0 mm 0.00 in0.0 mm
01:05 AM 33.8°F1.0°C 27.0°F-2.8°C 76% 4.0 mph SE6.4 kmh SE 11.0 mph17.7 kmh 30.04 in1017.3 mb 0.00 in0.0 mm 0.00 in0.0 mm 0.00 in0.0 mm
01:04 AM 33.8°F1.0°C 27.0°F-2.8°C 76% 2.0 mph S3.2 kmh S 11.0 mph17.7 kmh 30.04 in1017.3 mb 0.00 in0.0 mm 0.00 in0.0 mm 0.00 in0.0 mm
01:03 AM 33.8°F1.0°C 27.0°F-2.8°C 76% 3.0 mph S4.8 kmh S 11.0 mph17.7 kmh 30.04 in1017.3 mb 0.00 in0.0 mm 0.00 in0.0 mm 0.00 in0.0 mm
01:02 AM 33.7°F0.9°C 26.9°F-2.8°C 76% 4.0 mph SE6.4 kmh SE 11.0 mph17.7 kmh 30.04 in1017.3 mb 0.00 in0.0 mm 0.00 in0.0 mm 0.00 in0.0 mm
01:01 AM 33.7°F0.9°C 26.9°F-2.8°C 76% 2.0 mph SSE3.2 kmh SSE 11.0 mph17.7 kmh 30.04 in1017.3 mb 0.00 in0.0 mm 0.00 in0.0 mm 0.00 in0.0 mm
01:00 AM 33.7°F0.9°C 26.9°F-2.8°C 76% 5.0 mph SE8.0 kmh SE 11.0 mph17.7 kmh 30.04 in1017.3 mb 0.00 in0.0 mm 0.00 in0.0 mm 0.00 in0.0 mm
12:59 AM 33.7°F0.9°C 26.9°F-2.8°C 76% 2.0 mph S3.2 kmh S 11.0 mph17.7 kmh 30.05 in1017.6 mb 0.00 in0.0 mm 0.00 in0.0 mm 0.00 in0.0 mm
12:58 AM 33.6°F0.9°C 26.8°F-2.9°C 76% 4.0 mph S6.4 kmh S 11.0 mph17.7 kmh 30.05 in1017.6 mb 0.00 in0.0 mm 0.00 in0.0 mm 0.00 in0.0 mm
12:57 AM 33.6°F0.9°C 26.8°F-2.9°C 76% 4.0 mph S6.4 kmh S 11.0 mph17.7 kmh 30.05 in1017.6 mb 0.00 in0.0 mm 0.00 in0.0 mm 0.00 in0.0 mm
12:56 AM 33.6°F0.9°C 26.8°F-2.9°C 76% 7.0 mph SE11.3 kmh SE 11.0 mph17.7 kmh 30.05 in1017.6 mb 0.00 in0.0 mm 0.00 in0.0 mm 0.00 in0.0 mm
12:55 AM 33.5°F0.8°C 26.7°F-2.9°C 76% 3.0 mph SSE4.8 kmh SSE 11.0 mph17.7 kmh 30.05 in1017.6 mb 0.00 in0.0 mm 0.00 in0.0 mm 0.00 in0.0 mm
12:54 AM 33.5°F0.8°C 26.7°F-2.9°C 76% 4.0 mph S6.4 kmh S 11.0 mph17.7 kmh 30.05 in1017.6 mb 0.00 in0.0 mm 0.00 in0.0 mm 0.00 in0.0 mm
12:53 AM 33.5°F0.8°C 26.7°F-2.9°C 76% 3.0 mph SSE4.8 kmh SSE 11.0 mph17.7 kmh 30.05 in1017.6 mb 0.00 in0.0 mm 0.00 in0.0 mm 0.00 in0.0 mm
12:52 AM 33.4°F0.8°C 26.6°F-3.0°C 76% 7.0 mph S11.3 kmh S 11.0 mph17.7 kmh 30.05 in1017.6 mb 0.00 in0.0 mm 0.00 in0.0 mm 0.00 in0.0 mm
12:51 AM 33.4°F0.8°C 26.6°F-3.0°C 76% 3.0 mph SE4.8 kmh SE 11.0 mph17.7 kmh 30.05 in1017.6 mb 0.00 in0.0 mm 0.00 in0.0 mm 0.00 in0.0 mm
12:50 AM 33.4°F0.8°C 26.6°F-3.0°C 76% 4.0 mph SSE6.4 kmh SSE 11.0 mph17.7 kmh 30.05 in1017.6 mb 0.00 in0.0 mm 0.00 in0.0 mm 0.00 in0.0 mm
12:49 AM 33.4°F0.8°C 26.6°F-3.0°C 76% 3.0 mph SE4.8 kmh SE 12.0 mph19.3 kmh 30.05 in1017.6 mb 0.00 in0.0 mm 0.00 in0.0 mm 0.00 in0.0 mm
12:48 AM 33.4°F0.8°C 26.6°F-3.0°C 76% 4.0 mph SE6.4 kmh SE 12.0 mph19.3 kmh 30.05 in1017.6 mb 0.00 in0.0 mm 0.00 in0.0 mm 0.00 in0.0 mm
12:47 AM 33.4°F0.8°C 26.6°F-3.0°C 76% 5.0 mph SE8.0 kmh SE 12.0 mph19.3 kmh 30.05 in1017.6 mb 0.00 in0.0 mm 0.00 in0.0 mm 0.00 in0.0 mm
12:46 AM 33.3°F0.7°C 26.5°F-3.1°C 76% 5.0 mph SSE8.0 kmh SSE 12.0 mph19.3 kmh 30.05 in1017.6 mb 0.00 in0.0 mm 0.00 in0.0 mm 0.00 in0.0 mm
12:45 AM 33.3°F0.7°C 26.5°F-3.1°C 76% 5.0 mph SSE8.0 kmh SSE 12.0 mph19.3 kmh 30.05 in1017.6 mb 0.00 in0.0 mm 0.00 in0.0 mm 0.00 in0.0 mm
12:44 AM 33.3°F0.7°C 26.5°F-3.1°C 76% 5.0 mph SE8.0 kmh SE 12.0 mph19.3 kmh 30.05 in1017.6 mb 0.00 in0.0 mm 0.00 in0.0 mm 0.00 in0.0 mm
12:43 AM 33.3°F0.7°C 26.5°F-3.1°C 76% 4.0 mph SSE6.4 kmh SSE 12.0 mph19.3 kmh 30.05 in1017.6 mb 0.00 in0.0 mm 0.00 in0.0 mm 0.00 in0.0 mm
12:42 AM 33.3°F0.7°C 26.5°F-3.1°C 76% 2.0 mph S3.2 kmh S 12.0 mph19.3 kmh 30.05 in1017.6 mb 0.00 in0.0 mm 0.00 in0.0 mm 0.00 in0.0 mm
12:41 AM 33.2°F0.7°C 26.5°F-3.1°C 76% 5.0 mph S8.0 kmh S 12.0 mph19.3 kmh 30.05 in1017.6 mb 0.00 in0.0 mm 0.00 in0.0 mm 0.00 in0.0 mm
12:40 AM 33.2°F0.7°C 26.5°F-3.1°C 76% 7.0 mph SE11.3 kmh SE 12.0 mph19.3 kmh 30.05 in1017.6 mb 0.00 in0.0 mm 0.00 in0.0 mm 0.00 in0.0 mm
12:39 AM 33.2°F0.7°C 26.5°F-3.1°C 76% 2.0 mph SE3.2 kmh SE 10.0 mph16.1 kmh 30.06 in1017.9 mb 0.00 in0.0 mm 0.00 in0.0 mm 0.00 in0.0 mm
12:38 AM 33.2°F0.7°C 26.5°F-3.1°C 76% 2.0 mph SE3.2 kmh SE 10.0 mph16.1 kmh 30.06 in1017.9 mb 0.00 in0.0 mm 0.00 in0.0 mm 0.00 in0.0 mm
12:37 AM 33.1°F0.6°C 26.4°F-3.1°C 76% 7.0 mph SSE11.3 kmh SSE 10.0 mph16.1 kmh 30.06 in1017.9 mb 0.00 in0.0 mm 0.00 in0.0 mm 0.00 in0.0 mm
12:36 AM 33.1°F0.6°C 26.4°F-3.1°C 76% 3.0 mph SE4.8 kmh SE 10.0 mph16.1 kmh 30.06 in1017.9 mb 0.00 in0.0 mm 0.00 in0.0 mm 0.00 in0.0 mm
12:35 AM 33.0°F0.6°C 26.3°F-3.2°C 76% 4.0 mph SSE6.4 kmh SSE 10.0 mph16.1 kmh 30.06 in1017.9 mb 0.00 in0.0 mm 0.00 in0.0 mm 0.00 in0.0 mm
12:34 AM 33.0°F0.6°C 26.3°F-3.2°C 76% 8.0 mph SE12.9 kmh SE 10.0 mph16.1 kmh 30.06 in1017.9 mb 0.00 in0.0 mm 0.00 in0.0 mm 0.00 in0.0 mm
12:33 AM 33.0°F0.6°C 26.3°F-3.2°C 76% 3.0 mph SE4.8 kmh SE 10.0 mph16.1 kmh 30.06 in1017.9 mb 0.00 in0.0 mm 0.00 in0.0 mm 0.00 in0.0 mm
12:32 AM 32.9°F0.5°C 26.2°F-3.2°C 76% 8.0 mph SE12.9 kmh SE 10.0 mph16.1 kmh 30.06 in1017.9 mb 0.00 in0.0 mm 0.00 in0.0 mm 0.00 in0.0 mm
12:31 AM 32.9°F0.5°C 26.2°F-3.2°C 76% 9.0 mph SSE14.5 kmh SSE 10.0 mph16.1 kmh 30.06 in1017.9 mb 0.00 in0.0 mm 0.00 in0.0 mm 0.00 in0.0 mm
12:30 AM 32.8°F0.4°C 26.1°F-3.3°C 76% 3.0 mph ESE4.8 kmh ESE 10.0 mph16.1 kmh 30.06 in1017.9 mb 0.00 in0.0 mm 0.00 in0.0 mm 0.00 in0.0 mm
12:29 AM 32.8°F0.4°C 26.1°F-3.3°C 76% 10.0 mph SE16.1 kmh SE 10.0 mph16.1 kmh 30.06 in1017.9 mb 0.00 in0.0 mm 0.00 in0.0 mm 0.00 in0.0 mm
12:28 AM 32.8°F0.4°C 26.1°F-3.3°C 76% 6.0 mph S9.7 kmh S 10.0 mph16.1 kmh 30.06 in1017.9 mb 0.00 in0.0 mm 0.00 in0.0 mm 0.00 in0.0 mm
12:27 AM 32.8°F0.4°C 26.1°F-3.3°C 76% 7.0 mph SE11.3 kmh SE 9.0 mph14.5 kmh 30.06 in1017.9 mb 0.00 in0.0 mm 0.00 in0.0 mm 0.00 in0.0 mm
12:26 AM 32.7°F0.4°C 26.0°F-3.3°C 76% 4.0 mph SE6.4 kmh SE 9.0 mph14.5 kmh 30.06 in1017.9 mb 0.00 in0.0 mm 0.00 in0.0 mm 0.00 in0.0 mm
12:25 AM 32.7°F0.4°C 26.0°F-3.3°C 76% 3.0 mph SE4.8 kmh SE 9.0 mph14.5 kmh 30.06 in1017.9 mb 0.00 in0.0 mm 0.00 in0.0 mm 0.00 in0.0 mm
12:24 AM 32.6°F0.3°C 25.9°F-3.4°C 76% 9.0 mph SE14.5 kmh SE 9.0 mph14.5 kmh 30.06 in1017.9 mb 0.00 in0.0 mm 0.00 in0.0 mm 0.00 in0.0 mm
12:23 AM 32.6°F0.3°C 25.9°F-3.4°C 76% 4.0 mph SSE6.4 kmh SSE 9.0 mph14.5 kmh 30.06 in1017.9 mb 0.00 in0.0 mm 0.00 in0.0 mm 0.00 in0.0 mm
12:22 AM 32.6°F0.3°C 25.9°F-3.4°C 76% 4.0 mph SE6.4 kmh SE 8.0 mph12.9 kmh 30.06 in1017.9 mb 0.00 in0.0 mm 0.00 in0.0 mm 0.00 in0.0 mm
12:21 AM 32.5°F0.3°C 25.8°F-3.4°C 76% 4.0 mph SE6.4 kmh SE 11.0 mph17.7 kmh 30.06 in1017.9 mb 0.00 in0.0 mm 0.00 in0.0 mm 0.00 in0.0 mm
12:20 AM 32.5°F0.3°C 26.1°F-3.3°C 77% 3.0 mph SE4.8 kmh SE 11.0 mph17.7 kmh 30.06 in1017.9 mb 0.00 in0.0 mm 0.00 in0.0 mm 0.00 in0.0 mm
12:19 AM 32.4°F0.2°C 26.0°F-3.3°C 77% 2.0 mph S3.2 kmh S 11.0 mph17.7 kmh 30.07 in1018.3 mb 0.00 in0.0 mm 0.00 in0.0 mm 0.00 in0.0 mm
12:18 AM 32.4°F0.2°C 26.0°F-3.3°C 77% 5.0 mph SE8.0 kmh SE 11.0 mph17.7 kmh 30.07 in1018.3 mb 0.00 in0.0 mm 0.00 in0.0 mm 0.00 in0.0 mm
12:17 AM 32.3°F0.2°C 25.9°F-3.4°C 77% 3.0 mph SSE4.8 kmh SSE 11.0 mph17.7 kmh 30.07 in1018.3 mb 0.00 in0.0 mm 0.00 in0.0 mm 0.00 in0.0 mm
12:16 AM 32.3°F0.2°C 25.9°F-3.4°C 77% 2.0 mph SE3.2 kmh SE 11.0 mph17.7 kmh 30.07 in1018.3 mb 0.00 in0.0 mm 0.00 in0.0 mm 0.00 in0.0 mm
12:15 AM 32.3°F0.2°C 25.9°F-3.4°C 77% 7.0 mph SE11.3 kmh SE 11.0 mph17.7 kmh 30.07 in1018.3 mb 0.00 in0.0 mm 0.00 in0.0 mm 0.00 in0.0 mm
12:14 AM 32.2°F0.1°C 25.8°F-3.4°C 77% 3.0 mph SE4.8 kmh SE 11.0 mph17.7 kmh 30.07 in1018.3 mb 0.00 in0.0 mm 0.00 in0.0 mm 0.00 in0.0 mm
12:13 AM 32.2°F0.1°C 25.8°F-3.4°C 77% 4.0 mph SSE6.4 kmh SSE 11.0 mph17.7 kmh 30.07 in1018.3 mb 0.00 in0.0 mm 0.00 in0.0 mm 0.00 in0.0 mm
12:12 AM 32.1°F0.1°C 25.7°F-3.5°C 77% 5.0 mph SSE8.0 kmh SSE 11.0 mph17.7 kmh 30.07 in1018.3 mb 0.00 in0.0 mm 0.00 in0.0 mm 0.00 in0.0 mm
12:11 AM 32.1°F0.1°C 25.7°F-3.5°C 77% 7.0 mph SSE11.3 kmh SSE 11.0 mph17.7 kmh 30.07 in1018.3 mb 0.00 in0.0 mm 0.00 in0.0 mm 0.00 in0.0 mm
12:10 AM 32.1°F0.1°C 25.4°F-3.7°C 76% 3.0 mph SE4.8 kmh SE 11.0 mph17.7 kmh 30.07 in1018.3 mb 0.00 in0.0 mm 0.00 in0.0 mm 0.00 in0.0 mm
12:09 AM 32.0°F0.0°C 25.3°F-3.7°C 76% 6.0 mph SSE9.7 kmh SSE 11.0 mph17.7 kmh 30.07 in1018.3 mb 0.00 in0.0 mm 0.00 in0.0 mm 0.00 in0.0 mm
12:08 AM 32.0°F0.0°C 25.3°F-3.7°C 76% 8.0 mph SE12.9 kmh SE 11.0 mph17.7 kmh 30.07 in1018.3 mb 0.00 in0.0 mm 0.00 in0.0 mm 0.00 in0.0 mm
12:07 AM 32.0°F0.0°C 25.3°F-3.7°C 76% 4.0 mph SSE6.4 kmh SSE 8.0 mph12.9 kmh 30.07 in1018.3 mb 0.00 in0.0 mm 0.00 in0.0 mm 0.00 in0.0 mm
12:06 AM 31.9°F-0.1°C 25.2°F-3.8°C 76% 5.0 mph SSW8.0 kmh SSW 8.0 mph12.9 kmh 30.07 in1018.3 mb 0.00 in0.0 mm 0.00 in0.0 mm 0.00 in0.0 mm
12:05 AM 31.9°F-0.1°C 25.2°F-3.8°C 76% 7.0 mph SE11.3 kmh SE 8.0 mph12.9 kmh 30.07 in1018.3 mb 0.00 in0.0 mm 0.00 in0.0 mm 0.00 in0.0 mm
12:04 AM 31.9°F-0.1°C 25.2°F-3.8°C 76% 4.0 mph SE6.4 kmh SE 7.0 mph11.3 kmh 30.07 in1018.3 mb 0.00 in0.0 mm 0.00 in0.0 mm 0.00 in0.0 mm
12:03 AM 31.9°F-0.1°C 25.2°F-3.8°C 76% 2.0 mph SE3.2 kmh SE 7.0 mph11.3 kmh 30.07 in1018.3 mb 0.00 in0.0 mm 0.00 in0.0 mm 0.00 in0.0 mm
12:02 AM 31.9°F-0.1°C 25.2°F-3.8°C 76% 1.0 mph ESE1.6 kmh ESE 7.0 mph11.3 kmh 30.07 in1018.3 mb 0.00 in0.0 mm 0.00 in0.0 mm 0.00 in0.0 mm
12:01 AM 31.7°F-0.2°C 25.0°F-3.9°C 76% 7.0 mph SE11.3 kmh SE 7.0 mph11.3 kmh 30.07 in1018.3 mb 0.00 in0.0 mm 0.00 in0.0 mm 0.00 in0.0 mm
12:00 AM 31.7°F-0.2°C 25.0°F-3.9°C 76% 3.0 mph SE4.8 kmh SE 7.0 mph11.3 kmh 30.07 in1018.3 mb 0.00 in0.0 mm 0.00 in0.0 mm 0.00 in0.0 mm